Time;durP1;ratioP1;P1;durP2;ratioP2;P2;SDS_P1;SDS_P2;PMS_P1;PMS_P2;Temp;Humidity;BMP_temperature;BMP_pressure;BME280_temperature;BME280_humidity;BME280_pressure;Samples;Min_cycle;Max_cycle;Signal;HPM_P1;HPM_P2
2022/04/19 00:00:12;;;;;;;13.88;11.40;;;;;;;14.11;38.06;101356.88;6339621;22;20447;-64
2022/04/19 00:02:39;;;;;;;14.73;12.00;;;;;;;14.05;38.32;101365.44;6339874;22;20093;-65
2022/04/19 00:05:06;;;;;;;14.18;12.25;;;;;;;13.98;38.33;101354.25;6311363;22;20010;-64
2022/04/19 00:07:33;;;;;;;14.75;12.23;;;;;;;13.89;38.43;101354.97;6339397;22;20037;-64
2022/04/19 00:09:59;;;;;;;14.15;11.30;;;;;;;13.79;38.58;101351.25;6339530;22;20399;-66
2022/04/19 00:12:26;;;;;;;14.43;12.27;;;;;;;13.70;38.56;101354.66;6339672;22;20459;-64
2022/04/19 00:14:53;;;;;;;14.30;11.43;;;;;;;13.62;38.73;101354.38;6339893;22;20090;-63
2022/04/19 00:17:20;;;;;;;15.13;11.40;;;;;;;13.55;38.85;101355.81;6339727;22;20034;-64
2022/04/19 00:19:46;;;;;;;13.18;11.75;;;;;;;13.48;38.87;101357.25;6338219;22;20322;-65
2022/04/19 00:22:17;;;;;;;19.17;11.35;;;;;;;13.42;39.08;101350.47;6339942;22;20114;-64
2022/04/19 00:24:44;;;;;;;14.82;11.70;;;;;;;13.39;39.22;101345.31;6339767;22;20014;-64
2022/04/19 00:27:10;;;;;;;13.88;12.45;;;;;;;13.37;39.43;101352.63;6339520;22;20471;-64
2022/04/19 00:29:41;;;;;;;15.85;11.63;;;;;;;13.35;39.62;101344.66;6338841;22;20011;-63
2022/04/19 00:32:08;;;;;;;14.20;11.43;;;;;;;13.33;39.63;101343.03;6339485;22;20088;-64
2022/04/19 00:34:35;;;;;;;16.35;11.05;;;;;;;13.28;39.66;101343.38;6339844;22;20372;-64
2022/04/19 00:37:09;;;;;;;14.75;12.23;;;;;;;13.24;39.68;101335.63;6339876;22;20344;-63
2022/04/19 00:39:36;;;;;;;16.08;11.70;;;;;;;13.20;39.64;101335.00;6338779;22;20013;-64
2022/04/19 00:42:02;;;;;;;14.95;10.85;;;;;;;13.17;39.96;101332.53;6339224;22;20336;-63
2022/04/19 00:44:29;;;;;;;13.23;10.95;;;;;;;13.14;39.96;101332.72;6339822;22;20039;-63
2022/04/19 00:46:56;;;;;;;14.80;11.20;;;;;;;13.13;40.12;101333.72;6339349;22;20041;-63
2022/04/19 00:49:23;;;;;;;14.95;10.93;;;;;;;13.15;40.13;101333.59;6312030;22;20015;-63
2022/04/19 00:51:49;;;;;;;14.25;10.93;;;;;;;13.15;40.23;101337.16;6339520;22;20015;-64
2022/04/19 00:54:18;;;;;;;12.48;10.90;;;;;;;13.14;40.03;101331.88;6338439;22;20114;-64
2022/04/19 00:56:47;;;;;;;12.63;11.00;;;;;;;13.12;40.13;101341.91;6311122;22;20018;-64
2022/04/19 00:59:15;;;;;;;15.05;11.75;;;;;;;13.12;40.17;101331.13;6310816;22;20019;-64
2022/04/19 01:01:43;;;;;;;12.98;11.02;;;;;;;13.11;40.18;101338.34;6339335;22;20049;-64
2022/04/19 01:04:10;;;;;;;13.07;10.75;;;;;;;13.09;40.26;101340.31;6311318;22;20043;-64
2022/04/19 01:06:37;;;;;;;14.68;10.52;;;;;;;13.10;40.28;101342.03;6311924;22;20353;-64
2022/04/19 01:09:04;;;;;;;13.75;11.18;;;;;;;13.12;40.28;101341.91;6311670;22;20068;-63
2022/04/19 01:14:18;;;;;;;13.10;10.35;;;;;;;13.18;40.20;101334.25;6311503;22;20022;-63
2022/04/19 01:16:45;;;;;;;13.40;10.15;;;;;;;13.21;40.33;101333.16;6339347;22;20340;-64
2022/04/19 01:19:17;;;;;;;13.00;10.68;;;;;;;13.23;40.34;101336.63;6339353;22;20019;-64
2022/04/19 01:21:46;;;;;;;12.43;10.05;;;;;;;13.24;40.24;101336.50;6311473;22;20014;-63
2022/04/19 01:24:18;;;;;;;15.57;9.85;;;;;;;13.24;40.52;101344.59;6311517;22;20046;-64
2022/04/19 01:26:47;;;;;;;12.48;9.68;;;;;;;13.25;40.38;101338.22;6311601;22;20042;-63
2022/04/19 01:29:13;;;;;;;11.02;9.15;;;;;;;13.26;40.37;101339.94;6338972;22;20015;-64
2022/04/19 01:31:43;;;;;;;12.18;9.32;;;;;;;13.27;40.40;101340.81;6310286;22;20068;-64
2022/04/19 01:34:10;;;;;;;13.55;9.20;;;;;;;13.27;40.32;101341.66;6311450;22;20018;-64
2022/04/19 01:36:38;;;;;;;11.75;9.40;;;;;;;13.24;40.44;101333.81;6311429;22;20023;-64
2022/04/19 01:39:06;;;;;;;11.65;9.55;;;;;;;13.24;40.54;101341.91;6311470;22;20042;-64
2022/04/19 01:41:34;;;;;;;13.13;9.73;;;;;;;13.24;40.54;101335.63;6310973;22;20019;-64
2022/04/19 01:44:08;;;;;;;11.30;9.10;;;;;;;13.23;40.50;101340.16;6311545;22;20521;-63
2022/04/19 01:46:35;;;;;;;10.57;9.27;;;;;;;13.23;40.54;101331.22;6311423;22;20019;-63
2022/04/19 01:49:06;;;;;;;10.18;8.82;;;;;;;13.22;40.48;101332.19;6310962;22;20464;-64
2022/04/19 01:51:36;;;;;;;10.88;9.23;;;;;;;13.20;40.51;101332.31;6311168;22;20389;-64
2022/04/19 01:54:06;;;;;;;11.13;8.88;;;;;;;13.18;40.47;101326.16;6311348;22;20018;-63
2022/04/19 01:56:33;;;;;;;11.43;9.23;;;;;;;13.15;40.54;101320.97;6339416;22;20006;-63
2022/04/19 01:59:02;;;;;;;13.18;9.45;;;;;;;13.13;40.57;101317.53;6338690;22;20349;-63
2022/04/19 02:01:48;;;;;;;11.15;8.82;;;;;;;13.12;40.48;101313.09;6311200;22;20014;-64
2022/04/19 02:04:18;;;;;;;10.27;8.70;;;;;;;13.12;40.59;101315.81;6311133;22;20118;-64
2022/04/19 02:06:45;;;;;;;10.27;9.18;;;;;;;13.11;40.60;101316.78;6311491;22;20044;-63
2022/04/19 02:09:11;;;;;;;10.68;8.88;;;;;;;13.09;40.43;101312.47;6310953;22;20472;-63
2022/04/19 02:11:39;;;;;;;10.63;9.52;;;;;;;13.05;40.57;101314.53;6310955;22;20019;-63
2022/04/19 02:14:28;;;;;;;11.52;8.57;;;;;;;13.00;40.60;101304.09;6311439;22;20027;-63
2022/04/19 02:16:55;;;;;;;12.25;9.00;;;;;;;12.98;40.61;101314.13;6338788;22;20344;-63
2022/04/19 02:19:22;;;;;;;11.38;8.75;;;;;;;12.94;40.63;101311.78;6338880;22;20018;-63
2022/04/19 02:21:48;;;;;;;12.13;10.00;;;;;;;12.89;40.51;101311.25;6310800;22;20064;-63
2022/04/19 02:24:15;;;;;;;12.05;9.25;;;;;;;12.83;40.60;101309.88;6311083;22;20023;-64
2022/04/19 02:26:42;;;;;;;12.52;9.68;;;;;;;12.77;40.78;101312.16;6311087;22;20023;-65
2022/04/19 02:29:09;;;;;;;10.93;9.50;;;;;;;12.71;40.71;101310.75;6310905;22;20011;-64
2022/04/19 02:31:41;;;;;;;11.98;9.52;;;;;;;12.66;40.74;101313.78;6310543;22;20475;-63
2022/04/19 02:34:08;;;;;;;13.35;9.48;;;;;;;12.62;40.78;101304.16;6310615;22;20022;-64
2022/04/19 02:36:36;;;;;;;12.18;9.35;;;;;;;12.59;40.74;101307.09;6311142;22;20023;-63
2022/04/19 02:39:03;;;;;;;10.68;9.38;;;;;;;12.56;40.72;101307.31;6310857;22;20092;-64
2022/04/19 02:41:30;;;;;;;13.20;9.45;;;;;;;12.54;40.85;101303.88;6311161;22;20011;-63
2022/04/19 02:44:01;;;;;;;12.35;9.38;;;;;;;12.53;40.89;101301.28;6312563;22;20109;-63
2022/04/19 02:46:29;;;;;;;12.48;9.55;;;;;;;12.51;40.95;101298.69;6311425;22;20084;-66
2022/04/19 02:49:04;;;;;;;12.13;9.07;;;;;;;12.51;40.88;101298.69;6312738;22;20011;-63
2022/04/19 02:51:35;;;;;;;10.32;9.10;;;;;;;12.52;40.98;101302.25;6312893;22;20019;-63
2022/04/19 02:54:02;;;;;;;11.32;9.40;;;;;;;12.52;41.00;101296.88;6340434;22;20019;-65
2022/04/19 02:56:29;;;;;;;13.77;9.07;;;;;;;12.52;40.92;101296.88;6312855;22;20042;-64
2022/04/19 02:58:56;;;;;;;12.63;9.48;;;;;;;12.49;41.01;101297.09;6312155;22;20471;-63
2022/04/19 03:01:24;;;;;;;12.25;9.88;;;;;;;12.46;41.12;101292.78;6312007;22;20475;-64
2022/04/19 03:03:52;;;;;;;14.88;10.88;;;;;;;12.45;41.20;101292.88;6312860;22;20098;-64
2022/04/19 03:06:25;;;;;;;12.20;9.27;;;;;;;12.44;41.06;101296.56;6312641;22;20011;-64
2022/04/19 03:08:57;;;;;;;12.85;9.73;;;;;;;12.42;41.28;101288.59;6312821;22;20015;-63
2022/04/19 03:11:23;;;;;;;10.90;9.48;;;;;;;12.40;41.27;101287.84;6338958;22;20014;-64
2022/04/19 03:13:56;;;;;;;12.02;8.80;;;;;;;12.38;41.21;101292.47;6312890;22;20045;-64
2022/04/19 03:16:24;;;;;;;12.75;9.52;;;;;;;12.36;41.26;101283.63;6340129;22;20015;-64
2022/04/19 03:18:51;;;;;;;12.98;9.10;;;;;;;12.35;41.13;101290.00;6312746;22;20072;-64
2022/04/19 03:21:17;;;;;;;12.50;9.30;;;;;;;12.36;41.27;101294.41;6312377;22;20049;-64
2022/04/19 03:29:16;;;;;;;14.95;10.80;;;;;;;12.31;41.19;101291.19;6312505;22;20011;-64
2022/04/19 03:31:43;;;;;;;13.80;10.18;;;;;;;12.31;41.25;101297.44;6312363;22;20011;-64
2022/04/19 03:34:11;;;;;;;13.57;9.98;;;;;;;12.32;41.27;101298.28;6311623;22;20348;-64
2022/04/19 03:36:44;;;;;;;17.42;10.75;;;;;;;12.33;41.31;101297.31;6312667;22;20035;-64
2022/04/19 03:39:11;;;;;;;15.70;10.93;;;;;;;12.32;41.42;101295.59;6312327;22;20025;-64
2022/04/19 03:41:38;;;;;;;16.35;10.95;;;;;;;12.30;41.54;101293.00;6339841;22;20057;-64
2022/04/19 03:44:06;;;;;;;14.93;10.73;;;;;;;12.26;41.53;101296.91;6312339;22;20520;-64
2022/04/19 03:47:06;;;;;;;14.50;11.10;;;;;;;12.23;41.52;101285.47;6310740;22;20011;-64
2022/04/19 03:49:19;;;;;;;12.70;10.15;;;;;;;12.15;41.36;101285.16;6339793;22;20019;-64
2022/04/19 03:51:46;;;;;;;14.80;10.60;;;;;;;12.08;41.54;101287.44;6312080;22;20053;-64
2022/04/19 03:54:13;;;;;;;14.98;11.10;;;;;;;11.98;41.69;101299.81;6311687;22;20356;-64
2022/04/19 03:56:40;;;;;;;14.18;10.20;;;;;;;11.90;41.59;101294.97;6339912;22;20010;-64
2022/04/19 03:59:09;;;;;;;14.68;10.73;;;;;;;11.82;41.73;101297.28;6311964;22;20018;-64
2022/04/19 04:01:38;;;;;;;13.68;10.98;;;;;;;11.74;41.94;101291.53;6312030;22;20011;-64
2022/04/19 04:04:09;;;;;;;14.20;10.90;;;;;;;11.66;41.87;101286.69;6339757;22;20061;-64
2022/04/19 04:06:37;;;;;;;13.73;11.30;;;;;;;11.63;41.92;101286.91;6312242;22;20093;-63
2022/04/19 04:09:06;;;;;;;15.65;11.15;;;;;;;11.62;42.46;101292.38;6312219;22;20014;-63
2022/04/19 04:11:32;;;;;;;17.95;10.65;;;;;;;11.61;42.05;101299.59;6310902;22;20097;-63
2022/04/19 04:14:11;;;;;;;13.88;10.38;;;;;;;11.59;41.98;101292.59;6312042;22;20019;-63
2022/04/19 04:16:39;;;;;;;15.18;11.55;;;;;;;11.56;42.05;101292.81;6312139;22;20105;-63
2022/04/19 04:19:07;;;;;;;14.93;10.90;;;;;;;11.51;42.09;101300.31;6312057;22;20022;-63
2022/04/19 04:21:33;;;;;;;17.10;11.18;;;;;;;11.44;42.21;101297.19;6310879;22;20026;-64
2022/04/19 04:24:01;;;;;;;14.65;10.88;;;;;;;11.38;42.26;101303.84;6311640;22;20025;-62
2022/04/19 04:26:33;;;;;;;13.68;11.40;;;;;;;11.33;42.25;101305.97;6312422;22;20321;-64
2022/04/19 04:29:01;;;;;;;13.27;10.60;;;;;;;11.30;42.44;101303.50;6311877;22;20434;-64
2022/04/19 04:31:28;;;;;;;14.95;12.07;;;;;;;11.27;42.41;101306.38;6286214;22;20015;-63
2022/04/19 04:33:55;;;;;;;16.48;12.02;;;;;;;11.25;42.43;101310.16;6311492;22;20391;-63
2022/04/19 04:36:23;;;;;;;15.90;11.05;;;;;;;11.21;42.49;101311.31;6311686;22;20064;-63
2022/04/19 04:38:49;;;;;;;14.40;11.38;;;;;;;11.19;42.46;101308.72;6311888;22;20025;-64
2022/04/19 04:41:26;;;;;;;16.23;11.88;;;;;;;11.18;42.50;101316.88;6311792;22;20042;-63
2022/04/19 04:43:52;;;;;;;14.32;11.15;;;;;;;11.15;42.45;101315.28;6311858;22;20015;-63
2022/04/19 04:51:51;;;;;;;17.65;11.27;;;;;;;10.97;42.65;101328.06;6339411;22;20306;-64
2022/04/19 04:54:18;;;;;;;17.60;11.70;;;;;;;10.93;42.71;101333.72;6339329;22;20025;-64
2022/04/19 04:56:45;;;;;;;12.75;10.13;;;;;;;10.92;42.80;101332.88;6311606;22;20025;-65
2022/04/19 04:59:12;;;;;;;15.55;10.88;;;;;;;10.94;43.02;101330.09;6311291;22;20015;-63
2022/04/19 05:01:38;;;;;;;16.25;11.23;;;;;;;10.99;43.01;101333.34;6339593;22;20344;-64
2022/04/19 05:04:05;;;;;;;16.48;12.25;;;;;;;11.00;43.19;101329.69;6313662;22;20023;-64
2022/04/19 05:06:32;;;;;;;15.65;11.82;;;;;;;11.01;43.19;101326.03;6312163;22;20049;-64
2022/04/19 05:08:59;;;;;;;13.68;11.23;;;;;;;11.03;43.24;101321.41;6338502;22;20109;-64
2022/04/19 05:11:28;;;;;;;15.48;11.32;;;;;;;11.06;43.17;101329.28;6310959;22;20030;-64
2022/04/19 05:13:55;;;;;;;13.75;10.75;;;;;;;11.11;43.24;101330.69;6311321;22;20429;-64
2022/04/19 05:16:27;;;;;;;16.52;10.73;;;;;;;11.16;43.37;101332.25;6311577;22;20025;-63
2022/04/19 05:18:56;;;;;;;15.13;11.15;;;;;;;11.19;43.33;101332.91;6311113;22;20018;-65
2022/04/19 05:21:24;;;;;;;19.08;11.48;;;;;;;11.24;43.33;101332.63;6311428;22;20102;-64
2022/04/19 05:23:51;;;;;;;15.80;11.43;;;;;;;11.27;43.37;101332.41;6311529;22;20415;-65
2022/04/19 05:26:24;;;;;;;15.30;11.68;;;;;;;11.30;43.56;101338.44;6311298;22;20011;-64
2022/04/19 05:28:53;;;;;;;19.20;12.45;;;;;;;11.30;43.50;101330.38;6311409;22;20060;-65
2022/04/19 05:31:20;;;;;;;18.20;12.25;;;;;;;11.33;43.53;101337.38;6310754;22;20011;-63
2022/04/19 05:33:47;;;;;;;17.25;12.50;;;;;;;11.33;43.63;101327.50;6311767;22;20508;-65
2022/04/19 05:36:14;;;;;;;16.33;13.40;;;;;;;11.35;43.67;101339.00;6311457;22;20018;-63
2022/04/19 05:38:41;;;;;;;20.63;13.32;;;;;;;11.38;43.76;101336.13;6310994;22;20054;-63
2022/04/19 05:41:14;;;;;;;19.35;12.98;;;;;;;11.43;43.84;101342.03;6311143;22;20015;-63
2022/04/19 05:43:41;;;;;;;15.98;12.50;;;;;;;11.49;43.89;101334.53;6310790;22;20122;-63
2022/04/19 05:46:08;;;;;;;15.77;12.75;;;;;;;11.53;43.89;101341.44;6311283;22;20467;-63
2022/04/19 05:48:35;;;;;;;19.77;13.27;;;;;;;11.57;44.00;101332.19;6311443;22;20049;-63
2022/04/19 05:51:01;;;;;;;16.55;13.02;;;;;;;11.58;44.08;101334.78;6338833;22;20090;-63
2022/04/19 05:53:28;;;;;;;17.95;13.48;;;;;;;11.59;44.16;101328.44;6338533;22;20015;-63
2022/04/19 05:55:54;;;;;;;18.42;12.30;;;;;;;11.61;44.10;101321.13;6310907;22;20022;-64
2022/04/19 05:58:22;;;;;;;18.45;13.32;;;;;;;11.65;44.20;101329.84;6310773;22;20067;-63
2022/04/19 06:00:50;;;;;;;17.00;12.77;;;;;;;11.69;44.29;101331.34;6310969;22;20102;-63
2022/04/19 06:06:05;;;;;;;16.05;11.80;;;;;;;11.82;44.29;101336.78;6311400;22;20479;-64
2022/04/19 06:08:32;;;;;;;16.80;11.82;;;;;;;11.89;44.21;101333.59;6310388;22;20015;-63
2022/04/19 06:11:05;;;;;;;18.17;11.90;;;;;;;11.99;44.46;101333.84;6310994;22;20018;-63
2022/04/19 06:13:33;;;;;;;18.20;12.15;;;;;;;12.10;44.69;101333.94;6311059;22;20461;-63
2022/04/19 06:16:02;;;;;;;15.30;11.45;;;;;;;12.24;44.54;101332.97;6311532;22;20018;-64
2022/04/19 06:18:34;;;;;;;21.50;12.57;;;;;;;12.37;44.52;101326.63;6312326;22;20071;-64
2022/04/19 06:21:11;;;;;;;16.45;11.77;;;;;;;12.52;44.46;101334.59;6313654;22;20383;-64
2022/04/19 06:23:40;;;;;;;15.95;10.77;;;;;;;12.66;44.49;101321.88;6340893;22;20205;-64
2022/04/19 06:26:07;;;;;;;18.05;11.70;;;;;;;12.83;44.53;101335.97;6313147;22;20019;-64
2022/04/19 06:28:34;;;;;;;16.38;10.57;;;;;;;13.00;44.35;101332.88;6312580;22;20113;-65
2022/04/19 06:31:28;;;;;;;16.88;11.23;;;;;;;13.21;44.49;101333.16;6340116;22;20356;-64
2022/04/19 06:34:01;;;;;;;17.27;11.57;;;;;;;13.41;44.32;101337.09;6313087;22;20010;-64
2022/04/19 06:36:44;;;;;;;18.10;11.52;;;;;;;13.64;44.19;101341.63;6312792;22;20015;-65
2022/04/19 06:39:10;;;;;;;15.77;10.80;;;;;;;13.85;44.08;101337.28;6340624;22;20011;-64
2022/04/19 06:41:38;;;;;;;15.55;10.80;;;;;;;14.05;43.87;101334.88;6312654;22;20019;-65
2022/04/19 06:44:06;;;;;;;15.02;10.55;;;;;;;14.25;43.55;101336.91;6313012;22;20019;-64
2022/04/19 06:46:37;;;;;;;16.95;10.65;;;;;;;14.46;43.37;101347.88;6340577;22;20007;-64
2022/04/19 06:49:05;;;;;;;15.68;10.52;;;;;;;14.67;43.34;101340.75;6312967;22;20026;-64
2022/04/19 06:51:32;;;;;;;14.18;10.43;;;;;;;14.90;42.91;101345.22;6311275;22;20348;-63
2022/04/19 06:54:04;;;;;;;14.05;10.32;;;;;;;15.13;42.50;101343.31;6312074;22;20452;-64
2022/04/19 06:56:41;;;;;;;15.98;10.48;;;;;;;15.33;42.20;101347.09;6339938;22;20053;-63
2022/04/19 06:59:08;;;;;;;14.57;10.20;;;;;;;15.53;42.23;101351.69;6340072;22;20389;-63
2022/04/19 07:01:38;;;;;;;17.33;10.60;;;;;;;15.75;41.92;101350.81;6312501;22;20019;-64
2022/04/19 07:04:23;;;;;;;14.95;9.73;;;;;;;16.02;41.58;101346.72;6339615;22;20092;-64
2022/04/19 07:06:52;;;;;;;13.20;9.75;;;;;;;16.24;41.47;101349.28;6312454;22;20490;-63
2022/04/19 07:09:20;;;;;;;16.05;10.98;;;;;;;16.44;41.45;101348.44;6287067;22;20046;-63
2022/04/19 07:11:47;;;;;;;12.98;9.60;;;;;;;16.62;40.77;101348.66;6312415;22;20015;-63
2022/04/19 07:14:17;;;;;;;15.35;10.07;;;;;;;16.75;40.47;101346.63;6312111;22;20022;-63
2022/04/19 07:16:55;;;;;;;16.52;8.90;;;;;;;16.96;40.10;101351.13;6339697;22;20318;-64
2022/04/19 07:19:23;;;;;;;13.98;9.65;;;;;;;17.15;39.83;101359.34;6312410;22;20010;-65
2022/04/19 07:27:35;;;;;;;12.80;8.93;;;;;;;17.79;38.97;101365.16;6290740;22;20357;-65
2022/04/19 07:30:03;;;;;;;12.68;9.35;;;;;;;17.95;39.03;101355.63;6311719;22;20015;-65
2022/04/19 07:32:29;;;;;;;14.07;9.93;;;;;;;18.12;38.57;101362.16;6348410;22;20075;-66
2022/04/19 07:35:02;;;;;;;13.80;9.85;;;;;;;18.30;38.75;101357.69;6312943;22;20042;-66
2022/04/19 07:37:29;;;;;;;16.70;9.98;;;;;;;18.45;38.62;101363.53;6339991;22;20344;-65
2022/04/19 07:39:57;;;;;;;16.20;9.70;;;;;;;18.58;38.30;101358.63;6312075;22;20025;-66
2022/04/19 07:42:24;;;;;;;15.20;8.88;;;;;;;18.70;38.11;101365.66;6312303;22;20047;-65
2022/04/19 07:44:53;;;;;;;14.27;9.27;;;;;;;18.85;37.44;101360.59;6312249;22;20019;-65
2022/04/19 07:47:20;;;;;;;12.60;9.13;;;;;;;18.98;37.39;101367.41;6339872;22;20011;-65
2022/04/19 07:49:49;;;;;;;13.85;9.13;;;;;;;19.11;37.26;101364.31;6311662;22;20014;-65
2022/04/19 07:52:16;;;;;;;15.43;9.80;;;;;;;19.25;36.96;101358.34;6312162;22;20387;-66
2022/04/19 07:54:43;;;;;;;14.13;9.55;;;;;;;19.44;36.64;101362.84;6311904;22;20022;-65
2022/04/19 07:57:10;;;;;;;14.52;8.63;;;;;;;19.62;36.74;101358.31;6312223;22;20105;-65
2022/04/19 07:59:36;;;;;;;12.90;8.07;;;;;;;19.75;36.11;101362.50;6311948;22;20025;-66
2022/04/19 08:02:04;;;;;;;11.13;7.00;;;;;;;19.84;36.44;101359.69;6339755;22;20455;-65
2022/04/19 08:04:31;;;;;;;12.00;7.57;;;;;;;19.95;36.37;101362.19;6339645;22;20019;-65
2022/04/19 08:07:01;;;;;;;12.40;7.70;;;;;;;20.07;35.73;101357.38;6311993;22;20019;-65
2022/04/19 08:09:29;;;;;;;10.82;6.55;;;;;;;20.17;35.24;101360.00;6310977;22;20321;-65
2022/04/19 08:11:56;;;;;;;9.95;6.60;;;;;;;20.28;35.10;101360.59;6339822;22;20014;-66
2022/04/19 08:14:22;;;;;;;9.88;6.72;;;;;;;20.40;34.65;101365.81;6339527;22;20090;-64
2022/04/19 08:16:49;;;;;;;10.50;6.00;;;;;;;20.49;34.65;101364.88;6311924;22;20018;-65
2022/04/19 08:19:16;;;;;;;8.52;6.10;;;;;;;20.62;34.41;101363.41;6311672;22;20043;-64
2022/04/19 08:21:44;;;;;;;11.02;5.90;;;;;;;20.74;34.23;101355.78;6311611;22;20044;-64
2022/04/19 08:24:11;;;;;;;10.40;5.30;;;;;;;20.84;33.51;101356.56;6311649;22;20069;-65
2022/04/19 08:26:38;;;;;;;9.65;6.15;;;;;;;20.93;33.43;101355.56;6311246;22;20086;-67
2022/04/19 08:29:06;;;;;;;9.95;5.82;;;;;;;21.06;33.13;101357.84;6311376;22;20025;-65
2022/04/19 08:31:32;;;;;;;10.30;6.00;;;;;;;21.18;33.25;101351.06;6339520;22;20340;-68
2022/04/19 08:33:59;;;;;;;12.32;6.15;;;;;;;21.34;32.72;101353.03;6311632;22;20440;-67
2022/04/19 08:36:26;;;;;;;11.73;6.53;;;;;;;21.47;32.18;101347.06;6339801;22;20098;-67
2022/04/19 08:38:53;;;;;;;8.63;5.95;;;;;;;21.58;32.12;101348.66;6339554;22;20011;-67
2022/04/19 08:41:21;;;;;;;8.55;5.45;;;;;;;21.73;32.00;101350.56;6311565;22;20072;-67
2022/04/19 08:43:52;;;;;;;9.10;5.75;;;;;;;21.89;31.99;101344.25;6311766;22;20019;-67
2022/04/19 08:46:19;;;;;;;8.98;5.75;;;;;;;21.96;31.84;101339.81;6312500;22;20014;-67
2022/04/19 08:48:47;;;;;;;9.50;5.53;;;;;;;22.05;31.87;101335.22;6339469;22;20108;-67
2022/04/19 08:51:18;;;;;;;9.25;5.82;;;;;;;22.12;31.50;101338.97;6339148;22;20341;-66
2022/04/19 08:59:15;;;;;;;9.02;5.13;;;;;;;22.38;31.60;101336.06;6339186;22;20318;-67
2022/04/19 09:01:42;;;;;;;8.20;4.43;;;;;;;22.49;31.13;101338.44;6339044;22;20010;-66
2022/04/19 09:04:09;;;;;;;8.48;4.70;;;;;;;22.55;30.71;101345.94;6311633;22;20011;-67
2022/04/19 09:06:54;;;;;;;10.70;5.38;;;;;;;22.55;30.26;101332.25;6339276;22;20015;-67
2022/04/19 09:09:23;;;;;;;7.50;5.03;;;;;;;22.60;30.57;101339.94;6339077;22;20014;-67
2022/04/19 09:12:04;;;;;;;7.50;4.18;;;;;;;22.65;30.40;101334.78;6338935;22;20145;-67
2022/04/19 09:14:31;;;;;;;6.75;4.20;;;;;;;22.80;29.83;101347.59;6312067;22;20372;-69
2022/04/19 09:17:05;;;;;;;6.43;4.25;;;;;;;22.88;29.78;101340.38;6339319;22;20472;-67
2022/04/19 09:19:32;;;;;;;10.05;5.10;;;;;;;22.95;30.04;101338.66;6338734;22;20376;-67
2022/04/19 09:21:59;;;;;;;6.88;4.55;;;;;;;23.00;29.48;101342.56;6339237;22;20015;-67
2022/04/19 09:24:27;;;;;;;8.13;4.05;;;;;;;23.05;29.05;101331.94;6338914;22;20345;-67
2022/04/19 09:26:54;;;;;;;8.65;5.05;;;;;;;23.10;29.13;101343.22;6339150;22;20102;-68
2022/04/19 09:29:26;;;;;;;7.88;4.85;;;;;;;23.17;29.33;101337.88;6338882;22;20022;-68
2022/04/19 09:32:03;;;;;;;12.07;4.60;;;;;;;23.24;28.92;101336.13;6339130;22;20082;-68
2022/04/19 09:34:36;;;;;;;11.35;4.57;;;;;;;23.31;28.68;101328.91;6339436;22;20297;-69
2022/04/19 09:37:11;;;;;;;9.70;4.82;;;;;;;23.36;28.66;101328.34;6339150;22;20011;-68
2022/04/19 09:39:44;;;;;;;8.55;4.22;;;;;;;23.41;28.27;101323.19;6338955;22;20014;-67
2022/04/19 09:42:14;;;;;;;5.88;4.00;;;;;;;23.44;28.04;101323.69;6339498;22;20021;-67
2022/04/19 09:44:43;;;;;;;5.38;3.70;;;;;;;23.44;27.84;101331.06;6338868;22;20077;-67
2022/04/19 09:47:13;;;;;;;5.30;4.28;;;;;;;23.40;27.71;101325.06;6339071;22;20455;-67
2022/04/19 09:49:51;;;;;;;9.85;4.57;;;;;;;23.35;27.41;101315.69;6311040;22;20027;-68
2022/04/19 09:52:20;;;;;;;11.43;5.13;;;;;;;23.32;27.59;101316.91;6338875;22;20440;-67
2022/04/19 09:55:07;;;;;;;15.15;5.53;;;;;;;23.34;27.67;101301.13;6339295;22;20010;-68
2022/04/19 09:57:40;;;;;;;165.10;17.15;;;;;;;23.41;27.81;101310.34;6339342;22;20332;-67
2022/04/19 10:00:09;;;;;;;11.25;5.10;;;;;;;23.49;27.46;101319.53;6338560;22;20336;-68
2022/04/19 10:08:21;;;;;;;9.32;5.25;;;;;;;23.57;27.36;101303.06;6311371;22;20330;-67
2022/04/19 10:10:50;;;;;;;17.65;6.60;;;;;;;23.62;27.42;101308.84;6338733;22;20015;-67
2022/04/19 10:13:20;;;;;;;28.17;6.40;;;;;;;23.68;27.04;101302.63;6339014;22;20314;-67
2022/04/19 10:15:46;;;;;;;14.93;5.30;;;;;;;23.77;27.25;101305.13;6338749;22;20015;-66
2022/04/19 10:18:13;;;;;;;7.85;4.57;;;;;;;23.85;27.20;101303.38;6338529;22;20011;-68
2022/04/19 10:20:55;;;;;;;8.75;4.53;;;;;;;23.90;27.08;101290.81;6337003;22;20049;-68
2022/04/19 10:23:39;;;;;;;8.40;5.10;;;;;;;23.97;26.74;101297.28;6338708;22;20432;-68
2022/04/19 10:26:16;;;;;;;10.75;4.72;;;;;;;24.04;26.72;101298.22;6338502;22;20019;-68
2022/04/19 10:28:43;;;;;;;10.40;4.55;;;;;;;24.14;26.57;101289.72;6338949;22;20322;-68
2022/04/19 10:31:10;;;;;;;9.02;4.68;;;;;;;24.25;26.76;101296.66;6338390;22;20337;-69
2022/04/19 10:33:53;;;;;;;6.47;4.10;;;;;;;24.35;26.24;101289.03;6310616;22;20441;-68
2022/04/19 10:36:32;;;;;;;8.65;3.95;;;;;;;24.45;26.57;101286.00;6338679;22;20046;-67
2022/04/19 10:39:11;;;;;;;5.53;3.63;;;;;;;24.56;26.45;101283.66;6338240;22;20374;-68
2022/04/19 10:41:56;;;;;;;23.10;5.05;;;;;;;24.68;26.00;101278.53;6311009;22;20087;-69
2022/04/19 10:44:25;;;;;;;6.93;4.07;;;;;;;24.77;26.27;101282.91;6338746;22;20018;-68
2022/04/19 10:47:12;;;;;;;5.45;3.85;;;;;;;24.83;26.05;101282.13;6338247;22;20252;-69
2022/04/19 10:49:59;;;;;;;6.88;3.65;;;;;;;24.80;25.59;101293.50;6310612;22;20019;-67
2022/04/19 10:52:40;;;;;;;6.85;3.58;;;;;;;24.76;25.71;101283.94;6337853;22;20018;-68
2022/04/19 10:55:11;;;;;;;5.82;3.55;;;;;;;24.76;25.39;101286.69;6338202;22;20015;-68
2022/04/19 11:00:27;;;;;;;6.47;3.90;;;;;;;24.86;25.57;101278.16;6337898;22;20357;-68
2022/04/19 11:03:17;;;;;;;7.47;4.15;;;;;;;24.95;25.46;101285.22;6338778;22;20086;-67
2022/04/19 11:05:55;;;;;;;6.22;4.15;;;;;;;25.06;25.49;101281.16;6339581;22;20014;-68
2022/04/19 11:08:25;;;;;;;7.60;4.68;;;;;;;25.16;25.36;101276.22;6339977;22;20362;-68
2022/04/19 11:11:07;;;;;;;6.95;4.65;;;;;;;25.26;25.19;101269.34;6339875;22;20090;-68
2022/04/19 11:13:38;;;;;;;7.40;4.35;;;;;;;25.37;25.15;101275.41;6340080;22;20018;-68
2022/04/19 11:16:05;;;;;;;8.15;4.40;;;;;;;25.43;25.32;101278.22;6340259;22;20018;-67
2022/04/19 11:18:53;;;;;;;6.85;4.40;;;;;;;25.49;24.73;101266.44;6339720;22;20014;-67
2022/04/19 11:21:54;;;;;;;7.72;4.57;;;;;;;25.57;24.75;101268.22;6339603;22;20011;-67
2022/04/19 11:24:58;;;;;;;7.50;4.28;;;;;;;25.58;24.53;101259.78;6340078;22;20035;-67
2022/04/19 11:27:53;;;;;;;7.53;4.88;;;;;;;25.60;24.60;101271.44;6343777;22;20014;-67
2022/04/19 11:30:21;;;;;;;7.38;4.35;;;;;;;25.63;24.61;101273.78;6342469;22;20068;-67
2022/04/19 11:32:56;;;;;;;7.85;4.90;;;;;;;25.68;24.54;101270.47;6343162;22;20014;-68
2022/04/19 11:35:24;;;;;;;9.52;4.38;;;;;;;25.73;24.19;101251.47;6312219;22;20409;-67
2022/04/19 11:37:50;;;;;;;7.43;3.97;;;;;;;25.76;24.40;101262.06;6339598;22;20019;-65
2022/04/19 11:48:47;;;;;;;7.47;5.03;;;;;;;26.02;23.80;101249.63;6340145;22;20402;-68
2022/04/19 11:51:16;;;;;;;9.32;3.53;;;;;;;26.08;23.69;101244.16;6340086;22;20341;-69
2022/04/19 11:53:43;;;;;;;8.77;4.00;;;;;;;26.11;23.87;101241.00;6312626;22;20339;-68
2022/04/19 11:56:10;;;;;;;11.15;4.50;;;;;;;26.13;23.43;101251.81;6340262;22;20049;-68
2022/04/19 11:58:43;;;;;;;11.55;4.88;;;;;;;26.16;23.27;101256.91;6339801;22;20015;-68
2022/04/19 12:01:10;;;;;;;7.80;4.25;;;;;;;26.25;23.33;101240.03;6340053;22;20015;-69
2022/04/19 12:03:39;;;;;;;23.35;5.35;;;;;;;26.36;23.05;101252.41;6339583;22;20045;-69
2022/04/19 12:06:10;;;;;;;11.48;4.13;;;;;;;26.39;23.01;101242.91;6339728;22;20042;-70
2022/04/19 12:08:41;;;;;;;20.33;5.03;;;;;;;26.40;23.22;101248.19;6339929;22;20093;-68
2022/04/19 12:11:10;;;;;;;5.65;3.90;;;;;;;26.44;23.18;101255.00;6339593;22;20010;-69